Time;durP1;ratioP1;P1;durP2;ratioP2;P2;SDS_P1;SDS_P2;PMS_P1;PMS_P2;Temp;Humidity;BMP_temperature;BMP_pressure;BME280_temperature;BME280_humidity;BME280_pressure;Samples;Min_cycle;Max_cycle;Signal;HPM_P1;HPM_P2
2021/06/03 00:01:59;;;;;;;8.95;8.35;;;20.50;99.90;;;;;;5077300;28;20536;-66
2021/06/03 00:04:25;;;;;;;8.55;7.82;;;20.50;99.90;;;;;;5087027;28;20176;-66
2021/06/03 00:06:51;;;;;;;9.00;8.40;;;20.50;99.90;;;;;;5087770;28;20232;-66
2021/06/03 00:09:16;;;;;;;7.97;7.38;;;20.50;99.90;;;;;;5071874;28;20166;-65
2021/06/03 00:11:42;;;;;;;9.23;8.43;;;20.40;99.90;;;;;;5073920;28;20219;-66
2021/06/03 00:14:09;;;;;;;9.50;8.15;;;20.50;99.90;;;;;;5091850;28;20256;-67
2021/06/03 00:16:34;;;;;;;10.27;9.40;;;20.50;99.90;;;;;;5071842;28;20194;-65
2021/06/03 00:19:03;;;;;;;11.20;10.35;;;20.50;99.90;;;;;;5079053;28;20220;-65
2021/06/03 00:21:29;;;;;;;8.52;7.93;;;20.50;99.90;;;;;;5071478;28;20176;-66
2021/06/03 00:23:55;;;;;;;13.70;12.55;;;20.40;99.90;;;;;;5072452;28;20683;-66
2021/06/03 00:26:21;;;;;;;8.60;8.00;;;20.40;99.90;;;;;;5071444;28;20214;-66
2021/06/03 00:28:47;;;;;;;8.75;7.95;;;20.40;99.90;;;;;;5082987;28;20264;-66
2021/06/03 00:31:13;;;;;;;9.77;8.50;;;20.40;99.90;;;;;;5091492;28;20184;-66
2021/06/03 00:33:39;;;;;;;8.95;8.32;;;20.40;99.90;;;;;;5086287;28;20185;-66
2021/06/03 00:36:04;;;;;;;10.82;7.82;;;20.40;99.90;;;;;;5058495;28;20554;-65
2021/06/03 00:38:30;;;;;;;8.65;8.05;;;20.40;99.90;;;;;;5079482;28;20706;-66
2021/06/03 00:40:56;;;;;;;9.65;8.93;;;20.30;99.90;;;;;;5091385;28;20263;-66
2021/06/03 00:43:21;;;;;;;10.70;10.02;;;20.30;99.90;;;;;;5084616;28;20174;-67
2021/06/03 00:45:47;;;;;;;8.75;8.25;;;20.20;99.90;;;;;;5081879;28;20180;-66
2021/06/03 00:48:13;;;;;;;8.88;8.23;;;20.20;99.90;;;;;;5086095;28;20201;-66
2021/06/03 00:50:47;;;;;;;10.05;9.35;;;20.10;99.90;;;;;;5054267;28;20232;-66
2021/06/03 00:53:14;;;;;;;8.32;7.82;;;20.10;99.90;;;;;;5071514;28;20252;-67
2021/06/03 00:55:44;;;;;;;8.63;8.02;;;20.00;99.90;;;;;;5074568;28;20633;-66
2021/06/03 00:58:10;;;;;;;10.18;9.45;;;19.90;99.90;;;;;;5087817;28;20178;-66
2021/06/03 01:00:36;;;;;;;10.65;9.85;;;19.90;99.90;;;;;;5091191;28;20307;-66
2021/06/03 01:03:03;;;;;;;9.07;8.40;;;19.80;99.90;;;;;;5087918;28;20245;-66
2021/06/03 01:05:37;;;;;;;7.78;7.25;;;19.70;99.90;;;;;;5083027;28;20404;-67
2021/06/03 01:08:05;;;;;;;8.60;7.78;;;19.60;99.90;;;;;;5091429;28;20378;-66
2021/06/03 01:10:34;;;;;;;10.05;9.20;;;19.50;99.90;;;;;;5089447;28;20551;-66
2021/06/03 01:13:13;;;;;;;8.55;8.05;;;19.50;99.90;;;;;;5089844;28;20250;-67
2021/06/03 01:15:45;;;;;;;10.77;10.18;;;19.50;99.90;;;;;;5091370;28;20177;-67
2021/06/03 01:18:12;;;;;;;9.40;8.60;;;19.50;99.90;;;;;;5083527;28;20174;-67
2021/06/03 01:20:38;;;;;;;8.82;8.13;;;19.40;99.90;;;;;;5091087;28;20318;-66
2021/06/03 01:23:09;;;;;;;8.63;7.93;;;19.40;99.90;;;;;;5083432;28;20257;-66
2021/06/03 01:25:36;;;;;;;9.40;8.75;;;19.40;99.90;;;;;;5070944;28;20216;-66
2021/06/03 01:28:02;;;;;;;8.88;8.07;;;19.40;99.90;;;;;;5071264;28;20202;-67
2021/06/03 01:30:38;;;;;;;9.13;8.43;;;19.40;99.90;;;;;;5070610;28;20170;-66
2021/06/03 01:33:15;;;;;;;9.23;8.27;;;19.40;99.90;;;;;;5083402;28;20642;-66
2021/06/03 01:35:44;;;;;;;8.48;7.78;;;19.40;99.90;;;;;;5070946;28;20166;-66
2021/06/03 01:38:15;;;;;;;8.10;7.50;;;19.30;99.90;;;;;;5089403;28;20195;-66
2021/06/03 01:40:44;;;;;;;9.07;8.35;;;19.30;99.90;;;;;;5073077;28;20200;-66
2021/06/03 01:43:11;;;;;;;9.38;8.68;;;19.30;99.90;;;;;;5070911;28;20175;-66
2021/06/03 01:45:37;;;;;;;9.57;8.85;;;19.30;99.90;;;;;;5088165;28;20189;-66
2021/06/03 01:48:05;;;;;;;8.77;8.18;;;19.30;99.90;;;;;;5090222;28;20198;-66
2021/06/03 01:50:33;;;;;;;9.57;8.88;;;19.40;99.90;;;;;;5074239;28;20197;-66
2021/06/03 01:53:00;;;;;;;9.10;8.40;;;19.40;99.90;;;;;;5077872;28;20262;-66
2021/06/03 01:55:27;;;;;;;9.38;8.57;;;19.40;99.90;;;;;;5094844;28;20169;-66
2021/06/03 01:57:53;;;;;;;9.18;8.57;;;19.40;99.90;;;;;;5092834;28;20560;-66
2021/06/03 02:00:21;;;;;;;9.57;8.80;;;19.40;99.90;;;;;;5074446;28;20178;-66
2021/06/03 02:02:47;;;;;;;8.50;7.90;;;19.40;99.90;;;;;;5076143;28;20178;-66
2021/06/03 02:05:13;;;;;;;9.77;8.90;;;19.40;99.90;;;;;;5076388;28;20182;-65
2021/06/03 02:07:39;;;;;;;8.18;7.30;;;19.30;99.90;;;;;;5075025;28;20198;-65
2021/06/03 02:10:06;;;;;;;8.77;7.93;;;19.30;99.90;;;;;;5075656;28;20265;-66
2021/06/03 02:12:35;;;;;;;8.77;8.05;;;19.30;99.90;;;;;;5094193;28;20206;-66
2021/06/03 02:15:04;;;;;;;8.15;7.57;;;19.30;99.90;;;;;;5094171;28;20178;-66
2021/06/03 02:17:35;;;;;;;8.40;7.70;;;19.20;99.90;;;;;;5078789;28;20198;-65
2021/06/03 02:20:13;;;;;;;8.02;7.35;;;19.20;99.90;;;;;;5053778;28;20232;-67
2021/06/03 02:22:42;;;;;;;8.07;7.47;;;19.20;99.90;;;;;;5086033;28;20186;-67
2021/06/03 02:25:08;;;;;;;8.27;7.60;;;19.20;99.90;;;;;;5094137;28;20201;-65
2021/06/03 02:27:34;;;;;;;9.13;7.28;;;19.10;99.90;;;;;;5091502;28;20418;-66
2021/06/03 02:30:01;;;;;;;7.93;7.43;;;19.10;99.90;;;;;;5073548;28;20170;-66
2021/06/03 02:32:33;;;;;;;9.85;9.15;;;19.00;99.90;;;;;;5090580;28;20165;-66
2021/06/03 02:34:59;;;;;;;8.13;7.55;;;19.00;99.90;;;;;;5078164;28;20264;-66
2021/06/03 02:37:24;;;;;;;9.20;8.60;;;18.90;99.90;;;;;;5073702;28;20331;-66
2021/06/03 02:39:58;;;;;;;8.52;7.82;;;19.00;99.90;;;;;;5086974;28;20184;-66
2021/06/03 02:42:23;;;;;;;9.35;8.65;;;18.90;99.90;;;;;;5093728;28;20166;-67
2021/06/03 02:44:49;;;;;;;8.63;7.85;;;18.90;99.90;;;;;;5084641;28;20169;-66
2021/06/03 02:47:15;;;;;;;8.75;8.00;;;18.90;99.90;;;;;;5093646;28;20251;-66
2021/06/03 02:49:40;;;;;;;7.70;7.10;;;18.80;99.90;;;;;;5075380;28;20169;-66
2021/06/03 02:52:07;;;;;;;8.18;7.65;;;18.80;99.90;;;;;;5073237;28;20606;-66
2021/06/03 02:54:33;;;;;;;7.53;6.93;;;18.80;99.90;;;;;;5090102;28;20173;-66
2021/06/03 02:56:59;;;;;;;8.90;7.32;;;18.70;99.90;;;;;;5092739;28;20272;-66
2021/06/03 02:59:25;;;;;;;8.30;7.60;;;18.70;99.90;;;;;;5091660;28;20269;-66
2021/06/03 03:01:50;;;;;;;8.45;7.30;;;18.70;99.90;;;;;;5079441;28;20647;-65
2021/06/03 03:04:16;;;;;;;8.00;7.27;;;18.60;99.90;;;;;;5080087;28;20198;-66
2021/06/03 03:06:42;;;;;;;8.37;7.67;;;18.60;99.90;;;;;;5073171;28;20186;-67
2021/06/03 03:09:07;;;;;;;8.68;7.97;;;18.60;99.90;;;;;;5086171;28;20254;-65
2021/06/03 03:11:33;;;;;;;7.70;6.97;;;18.50;99.90;;;;;;5091309;28;20174;-65
2021/06/03 03:13:59;;;;;;;7.60;7.00;;;18.50;99.90;;;;;;5093170;28;20196;-65
2021/06/03 03:16:25;;;;;;;8.32;7.30;;;18.40;99.90;;;;;;5088578;28;20196;-65
2021/06/03 03:18:51;;;;;;;8.33;7.50;;;18.40;99.90;;;;;;5093139;28;20643;-67
2021/06/03 03:21:16;;;;;;;7.93;7.40;;;18.40;99.90;;;;;;5083637;28;20170;-66
2021/06/03 03:23:42;;;;;;;8.30;7.60;;;18.30;99.90;;;;;;5082434;28;20198;-66
2021/06/03 03:26:08;;;;;;;7.73;7.10;;;18.30;99.90;;;;;;5085290;28;20258;-66
2021/06/03 03:28:34;;;;;;;7.63;7.13;;;18.20;99.90;;;;;;5073807;28;20220;-67
2021/06/03 03:31:00;;;;;;;8.43;7.73;;;18.10;99.90;;;;;;5072165;28;20162;-66
2021/06/03 03:33:25;;;;;;;9.00;8.30;;;18.10;99.90;;;;;;5075899;28;20178;-66
2021/06/03 03:35:52;;;;;;;7.97;7.37;;;18.10;99.90;;;;;;5075073;28;20201;-65
2021/06/03 03:38:20;;;;;;;9.80;8.38;;;18.10;99.90;;;;;;5090047;28;20177;-66
2021/06/03 03:40:46;;;;;;;9.00;8.30;;;18.10;99.90;;;;;;5086528;28;20178;-65
2021/06/03 03:43:12;;;;;;;9.47;8.87;;;18.00;99.90;;;;;;5076129;28;20184;-67
2021/06/03 03:45:38;;;;;;;8.80;8.10;;;18.00;99.90;;;;;;5083712;28;20205;-64
2021/06/03 03:48:04;;;;;;;8.83;8.13;;;18.00;99.90;;;;;;5091753;28;20239;-66
2021/06/03 03:50:32;;;;;;;8.47;7.80;;;18.00;99.90;;;;;;5090203;28;20588;-66
2021/06/03 03:52:58;;;;;;;9.43;8.70;;;18.00;99.90;;;;;;5090620;28;20265;-67
2021/06/03 03:55:24;;;;;;;8.53;7.83;;;18.00;99.90;;;;;;5092194;28;20251;-65
2021/06/03 03:57:49;;;;;;;9.07;8.20;;;18.00;99.90;;;;;;5085947;28;20201;-66
2021/06/03 04:00:27;;;;;;;9.40;8.63;;;18.00;99.90;;;;;;5071692;28;20177;-66
2021/06/03 04:02:53;;;;;;;9.17;8.47;;;18.00;99.90;;;;;;5052051;28;20178;-67
2021/06/03 04:05:19;;;;;;;9.57;8.90;;;18.00;99.90;;;;;;5084505;28;20235;-66
2021/06/03 04:07:45;;;;;;;9.02;8.23;;;18.10;99.90;;;;;;5082398;28;20237;-65
2021/06/03 04:10:14;;;;;;;9.45;8.55;;;18.20;99.90;;;;;;5072621;28;20252;-66
2021/06/03 04:12:41;;;;;;;9.30;8.40;;;18.20;99.90;;;;;;5073050;28;20243;-67
2021/06/03 04:15:08;;;;;;;9.15;8.30;;;18.20;99.90;;;;;;5092091;28;20166;-64
2021/06/03 04:17:34;;;;;;;9.27;8.45;;;18.30;99.90;;;;;;5091533;28;20226;-65
2021/06/03 04:20:00;;;;;;;8.75;8.15;;;18.40;99.90;;;;;;5071459;28;20170;-66
2021/06/03 04:22:26;;;;;;;8.43;7.82;;;18.50;99.90;;;;;;5071629;28;20167;-67
2021/06/03 04:24:51;;;;;;;8.32;7.63;;;18.60;99.90;;;;;;5091035;28;20180;-66
2021/06/03 04:27:17;;;;;;;8.95;8.18;;;18.60;99.90;;;;;;5073406;28;20206;-65
2021/06/03 04:29:43;;;;;;;8.13;7.13;;;18.60;99.90;;;;;;5089081;28;20182;-65
2021/06/03 04:32:09;;;;;;;8.02;7.43;;;18.50;99.90;;;;;;5078111;28;20674;-65
2021/06/03 04:34:35;;;;;;;7.93;7.38;;;18.60;99.90;;;;;;5053544;28;20178;-65
2021/06/03 04:37:01;;;;;;;8.50;7.80;;;18.70;99.90;;;;;;5089501;28;20280;-66
2021/06/03 04:39:28;;;;;;;9.10;8.40;;;18.90;99.90;;;;;;5071511;28;20177;-66
2021/06/03 04:41:53;;;;;;;8.73;8.00;;;18.90;99.90;;;;;;5088428;28;20185;-65
2021/06/03 04:44:19;;;;;;;9.38;8.57;;;19.00;99.90;;;;;;5076245;28;20170;-65
2021/06/03 04:46:45;;;;;;;9.30;8.50;;;19.00;99.90;;;;;;5077677;28;20193;-65
2021/06/03 04:49:10;;;;;;;8.35;7.65;;;19.00;99.90;;;;;;5091760;28;20201;-66
2021/06/03 04:51:38;;;;;;;9.15;8.30;;;19.10;99.90;;;;;;5087606;28;20181;-66
2021/06/03 04:54:05;;;;;;;8.10;7.50;;;19.10;99.90;;;;;;5091464;28;20162;-66
2021/06/03 04:56:32;;;;;;;9.52;8.80;;;19.20;99.90;;;;;;5084363;28;20255;-66
2021/06/03 04:58:57;;;;;;;10.82;9.88;;;19.50;99.90;;;;;;5083190;28;20185;-66
2021/06/03 05:01:23;;;;;;;8.57;7.97;;;19.90;99.90;;;;;;5085893;28;20184;-67
2021/06/03 05:03:49;;;;;;;10.18;9.05;;;20.50;99.90;;;;;;5081902;28;20278;-66
2021/06/03 05:06:15;;;;;;;9.20;8.38;;;21.00;99.90;;;;;;5087673;28;20232;-66
2021/06/03 05:08:41;;;;;;;7.88;7.28;;;21.40;99.90;;;;;;5080546;28;20224;-66
2021/06/03 05:11:06;;;;;;;10.20;6.65;;;21.80;99.90;;;;;;5089280;28;20177;-66
2021/06/03 05:13:32;;;;;;;7.30;6.80;;;22.00;99.90;;;;;;5082964;28;20174;-66
2021/06/03 05:15:59;;;;;;;7.90;7.20;;;22.20;99.90;;;;;;5074898;28;20201;-66
2021/06/03 05:18:24;;;;;;;8.45;7.60;;;22.40;99.90;;;;;;5087665;28;20178;-66
2021/06/03 05:20:51;;;;;;;8.35;7.57;;;22.60;99.90;;;;;;5087030;28;20545;-66
2021/06/03 05:23:17;;;;;;;7.20;6.70;;;22.70;99.90;;;;;;5075214;28;20635;-66
2021/06/03 05:25:44;;;;;;;7.15;6.60;;;22.80;99.90;;;;;;5078420;28;20528;-66
2021/06/03 05:28:10;;;;;;;9.80;7.82;;;22.70;99.90;;;;;;5074913;28;20558;-66
2021/06/03 05:30:36;;;;;;;8.00;7.35;;;22.70;99.90;;;;;;5077110;28;20180;-66
2021/06/03 05:33:01;;;;;;;8.20;7.50;;;22.60;99.90;;;;;;5090711;28;20176;-66
2021/06/03 05:35:27;;;;;;;8.80;8.15;;;22.50;99.90;;;;;;5074935;28;20537;-66
2021/06/03 05:37:53;;;;;;;11.45;10.57;;;22.40;99.90;;;;;;5092181;28;20243;-66
2021/06/03 05:40:22;;;;;;;8.30;7.70;;;22.40;99.90;;;;;;5094624;28;20269;-64
2021/06/03 05:42:49;;;;;;;8.90;8.20;;;22.40;99.90;;;;;;5062669;28;20188;-66
2021/06/03 05:45:15;;;;;;;8.93;7.90;;;22.40;99.90;;;;;;5095058;28;20443;-66
2021/06/03 05:47:41;;;;;;;9.68;8.82;;;22.40;99.90;;;;;;5081153;28;20201;-66
2021/06/03 05:50:10;;;;;;;8.30;7.80;;;22.40;99.90;;;;;;5094468;28;20177;-65
2021/06/03 05:52:37;;;;;;;8.95;7.72;;;22.40;99.90;;;;;;5085477;28;20265;-66
2021/06/03 05:55:05;;;;;;;8.73;7.85;;;22.40;99.90;;;;;;5074502;28;20172;-67
2021/06/03 05:57:31;;;;;;;8.07;7.47;;;22.50;99.90;;;;;;5091650;28;20753;-67
2021/06/03 05:59:57;;;;;;;8.15;7.43;;;22.60;99.90;;;;;;5094455;28;20266;-66
2021/06/03 06:02:45;;;;;;;9.45;8.63;;;23.10;99.90;;;;;;5078525;28;20174;-66
2021/06/03 06:07:54;;;;;;;9.20;8.40;;;24.50;99.90;;;;;;5093533;28;20598;-67
2021/06/03 06:10:20;;;;;;;8.45;7.70;;;24.90;99.90;;;;;;5089361;28;20186;-66
2021/06/03 06:12:45;;;;;;;10.38;9.57;;;25.00;99.90;;;;;;5075049;28;20178;-66
2021/06/03 06:15:12;;;;;;;18.50;17.42;;;25.10;99.90;;;;;;5080818;28;20708;-66
2021/06/03 06:17:37;;;;;;;8.77;8.02;;;24.90;99.90;;;;;;5088880;28;20201;-67
2021/06/03 06:20:04;;;;;;;8.05;7.38;;;24.70;99.90;;;;;;5079170;28;20186;-65
2021/06/03 06:22:30;;;;;;;12.00;10.95;;;24.40;99.90;;;;;;5077811;28;20166;-66
2021/06/03 06:24:58;;;;;;;9.93;9.02;;;24.10;99.90;;;;;;5073951;28;20261;-65
2021/06/03 06:27:24;;;;;;;8.07;7.45;;;23.80;99.90;;;;;;5074725;28;20225;-65
2021/06/03 06:29:50;;;;;;;11.52;9.55;;;23.50;99.90;;;;;;5055891;28;20198;-65
2021/06/03 06:32:16;;;;;;;8.02;7.15;;;23.10;99.90;;;;;;5073402;28;20178;-65
2021/06/03 06:34:41;;;;;;;8.52;7.82;;;22.90;99.90;;;;;;5091632;28;20181;-67
2021/06/03 06:37:07;;;;;;;8.90;8.00;;;22.70;99.90;;;;;;5079857;28;20209;-66
2021/06/03 06:39:32;;;;;;;10.25;9.45;;;22.50;99.90;;;;;;5073828;28;20197;-66
2021/06/03 06:41:58;;;;;;;10.80;8.88;;;22.30;99.90;;;;;;5077450;28;20216;-65
2021/06/03 06:44:24;;;;;;;9.40;8.48;;;22.20;99.90;;;;;;5073401;28;20166;-65
2021/06/03 06:46:49;;;;;;;9.43;8.60;;;22.10;99.90;;;;;;5087682;28;20209;-66
2021/06/03 06:49:15;;;;;;;9.07;8.20;;;22.10;99.90;;;;;;5078733;28;20210;-67
2021/06/03 06:51:41;;;;;;;9.85;8.77;;;22.00;99.90;;;;;;5085231;28;20328;-65
2021/06/03 06:54:06;;;;;;;10.48;9.65;;;21.90;99.90;;;;;;5074776;28;20257;-67
2021/06/03 06:56:32;;;;;;;10.20;8.85;;;21.80;99.90;;;;;;5093397;28;20185;-66
2021/06/03 06:58:58;;;;;;;10.10;9.05;;;21.70;99.90;;;;;;5093008;28;20249;-65
2021/06/03 07:01:23;;;;;;;11.45;10.40;;;21.50;99.90;;;;;;5073022;28;20261;-66
2021/06/03 07:03:51;;;;;;;15.27;13.93;;;21.10;99.90;;;;;;5083729;28;20315;-66
2021/06/03 07:06:16;;;;;;;12.95;11.73;;;20.80;99.90;;;;;;5093164;28;20769;-67
2021/06/03 07:08:42;;;;;;;13.02;11.90;;;20.60;99.90;;;;;;5091550;28;20292;-66
2021/06/03 07:11:07;;;;;;;12.90;11.90;;;20.40;99.90;;;;;;5086906;28;20213;-66
2021/06/03 07:13:33;;;;;;;15.23;12.68;;;20.20;99.90;;;;;;5081549;28;20210;-66
2021/06/03 07:15:59;;;;;;;13.50;12.10;;;20.20;99.90;;;;;;5088893;28;20193;-65
2021/06/03 07:18:24;;;;;;;15.15;13.85;;;20.10;99.90;;;;;;5079897;28;20678;-66
2021/06/03 07:20:50;;;;;;;13.77;12.40;;;20.10;99.90;;;;;;5090522;28;20280;-67
2021/06/03 07:23:15;;;;;;;14.38;11.88;;;20.10;99.90;;;;;;5083614;28;20213;-66
2021/06/03 07:25:41;;;;;;;12.90;11.80;;;20.30;99.90;;;;;;5072554;28;20248;-66
2021/06/03 07:28:08;;;;;;;13.27;12.13;;;20.50;99.90;;;;;;5088515;28;20209;-67
2021/06/03 07:30:34;;;;;;;13.68;11.95;;;20.60;99.90;;;;;;5072215;28;20187;-67
2021/06/03 07:33:00;;;;;;;15.35;14.07;;;20.70;99.90;;;;;;5086843;28;20177;-65
2021/06/03 07:35:28;;;;;;;12.90;10.98;;;20.80;99.90;;;;;;5083233;28;20190;-67
2021/06/03 07:37:54;;;;;;;15.15;13.63;;;21.10;99.90;;;;;;5084020;28;20670;-66
2021/06/03 07:40:24;;;;;;;10.95;9.95;;;21.20;99.90;;;;;;5085169;28;20220;-66
2021/06/03 07:42:50;;;;;;;11.52;10.50;;;21.40;99.90;;;;;;5074589;28;20299;-65
2021/06/03 07:45:20;;;;;;;10.75;9.85;;;21.50;99.90;;;;;;5092510;28;20173;-65
2021/06/03 07:47:46;;;;;;;11.20;10.35;;;21.60;99.90;;;;;;5090811;28;20197;-65
2021/06/03 07:50:13;;;;;;;11.00;9.77;;;21.70;99.90;;;;;;5079661;28;20239;-66
2021/06/03 07:52:39;;;;;;;10.82;9.73;;;21.80;99.90;;;;;;5086625;28;20169;-66
2021/06/03 07:55:06;;;;;;;11.02;10.02;;;21.90;99.90;;;;;;5092207;28;20202;-66
2021/06/03 07:57:33;;;;;;;11.80;10.30;;;22.00;99.90;;;;;;5076481;28;20296;-66
2021/06/03 07:59:59;;;;;;;10.55;9.63;;;22.00;99.90;;;;;;5072546;28;20204;-65
2021/06/03 08:02:24;;;;;;;11.05;10.02;;;22.10;99.90;;;;;;5085648;28;20173;-65
2021/06/03 08:04:50;;;;;;;9.85;9.05;;;22.10;99.90;;;;;;5071672;28;20181;-66
2021/06/03 08:07:16;;;;;;;10.52;9.60;;;22.20;99.90;;;;;;5075733;28;20206;-66
2021/06/03 08:09:44;;;;;;;12.63;11.45;;;22.20;99.90;;;;;;5071751;28;20193;-64
2021/06/03 08:12:10;;;;;;;11.25;9.70;;;22.30;99.90;;;;;;5088052;28;20174;-67
2021/06/03 08:14:36;;;;;;;9.25;8.45;;;22.40;99.90;;;;;;5074665;28;20182;-67
2021/06/03 08:17:02;;;;;;;11.60;10.60;;;22.50;99.90;;;;;;5083609;28;20204;-66
2021/06/03 08:19:27;;;;;;;12.75;11.40;;;22.20;99.90;;;;;;5071717;28;20174;-67
2021/06/03 08:21:53;;;;;;;11.80;10.23;;;22.10;99.90;;;;;;5079271;28;20660;-65
2021/06/03 08:24:18;;;;;;;11.20;10.20;;;21.90;99.90;;;;;;5071931;28;20174;-67
2021/06/03 08:26:49;;;;;;;17.25;13.30;;;21.80;99.90;;;;;;5063831;28;20208;-67
2021/06/03 08:29:15;;;;;;;11.57;10.38;;;21.80;99.90;;;;;;5076888;28;20208;-66
2021/06/03 08:31:41;;;;;;;11.00;10.18;;;21.80;99.90;;;;;;5080636;28;20237;-67
2021/06/03 08:34:06;;;;;;;10.98;9.75;;;21.90;99.90;;;;;;5090161;28;20182;-65
2021/06/03 08:36:32;;;;;;;14.60;13.35;;;22.10;99.90;;;;;;5083816;28;20201;-66
2021/06/03 08:38:58;;;;;;;10.40;9.52;;;22.30;99.90;;;;;;5071429;28;20243;-66
2021/06/03 08:41:25;;;;;;;11.43;10.43;;;22.50;99.90;;;;;;5077283;28;20189;-67
2021/06/03 08:43:51;;;;;;;11.15;10.15;;;22.60;99.90;;;;;;5091689;28;20173;-66
2021/06/03 08:46:17;;;;;;;12.32;11.32;;;22.70;99.90;;;;;;5077056;28;20534;-67
2021/06/03 08:48:46;;;;;;;12.10;10.88;;;22.70;99.90;;;;;;5087194;28;20688;-67
2021/06/03 08:51:11;;;;;;;13.02;9.73;;;22.80;99.90;;;;;;5078105;28;20568;-67
2021/06/03 08:53:37;;;;;;;10.40;9.32;;;22.80;99.90;;;;;;5089014;28;20273;-66
2021/06/03 08:56:19;;;;;;;12.23;10.93;;;22.80;99.90;;;;;;5079615;28;20204;-67
2021/06/03 08:59:04;;;;;;;12.10;10.88;;;22.70;99.90;;;;;;5081181;28;20650;-67
2021/06/03 09:01:30;;;;;;;12.57;11.32;;;22.40;99.90;;;;;;5072980;28;20186;-66
2021/06/03 09:03:57;;;;;;;15.95;12.77;;;22.00;99.90;;;;;;5081875;28;20685;-65
2021/06/03 09:06:23;;;;;;;18.10;13.45;;;21.60;99.90;;;;;;5080665;28;20590;-66
2021/06/03 09:08:58;;;;;;;15.05;12.57;;;21.40;99.90;;;;;;5081532;28;20677;-66
2021/06/03 09:11:25;;;;;;;14.70;13.23;;;21.30;99.90;;;;;;5081957;28;20208;-66
2021/06/03 09:13:55;;;;;;;15.95;13.25;;;21.20;99.90;;;;;;5089420;28;20552;-67
2021/06/03 09:16:31;;;;;;;14.45;12.07;;;21.10;99.90;;;;;;5083158;28;20277;-65
2021/06/03 09:19:12;;;;;;;16.90;15.32;;;20.90;99.90;;;;;;5070987;28;20219;-66
2021/06/03 09:21:45;;;;;;;21.92;19.70;;;20.80;99.90;;;;;;5079783;28;20188;-66
2021/06/03 09:24:13;;;;;;;25.52;23.48;;;20.70;99.90;;;;;;5070966;28;20174;-66
2021/06/03 09:26:45;;;;;;;27.98;25.75;;;20.80;99.90;;;;;;5079808;28;20678;-66
2021/06/03 09:29:19;;;;;;;21.58;19.73;;;20.70;99.90;;;;;;5091057;28;20351;-66
2021/06/03 09:31:45;;;;;;;26.10;24.00;;;20.80;99.90;;;;;;5080335;28;20173;-66
2021/06/03 09:34:31;;;;;;;19.85;18.10;;;20.90;99.90;;;;;;5084599;28;20666;-67
2021/06/03 09:37:02;;;;;;;17.00;14.88;;;21.10;99.90;;;;;;5089206;28;20193;-65
2021/06/03 09:39:35;;;;;;;22.55;20.77;;;21.20;99.90;;;;;;5086565;28;20177;-67
2021/06/03 09:42:14;;;;;;;16.67;15.13;;;21.40;99.90;;;;;;5079611;28;20239;-67
2021/06/03 09:44:51;;;;;;;20.02;17.95;;;21.40;99.90;;;;;;5050714;28;20219;-67
2021/06/03 09:47:20;;;;;;;17.48;16.08;;;21.50;99.90;;;;;;5073813;28;20484;-66
2021/06/03 09:49:53;;;;;;;13.00;11.90;;;21.50;99.90;;;;;;5090716;28;20666;-66
2021/06/03 09:52:29;;;;;;;15.07;13.98;;;21.40;99.90;;;;;;5080757;28;20209;-67
2021/06/03 09:55:00;;;;;;;14.02;12.77;;;21.40;99.90;;;;;;5090723;28;20599;-66
2021/06/03 09:57:33;;;;;;;19.67;18.33;;;21.30;99.90;;;;;;5078108;28;20197;-67
2021/06/03 10:00:07;;;;;;;19.23;17.75;;;21.30;99.90;;;;;;5050173;28;20240;-66
2021/06/03 10:02:33;;;;;;;25.00;23.02;;;21.30;99.90;;;;;;5075796;28;20677;-67
2021/06/03 10:05:00;;;;;;;16.70;15.27;;;21.50;99.90;;;;;;5073310;28;20178;-66
2021/06/03 10:07:26;;;;;;;15.95;14.50;;;21.70;99.90;;;;;;5074309;28;20202;-66
2021/06/03 10:10:04;;;;;;;16.95;15.55;;;21.90;99.90;;;;;;5074972;28;20211;-67
2021/06/03 10:12:36;;;;;;;13.75;12.65;;;22.10;99.90;;;;;;5091137;28;20264;-67
2021/06/03 10:15:05;;;;;;;20.77;19.10;;;22.50;99.90;;;;;;5073933;28;20166;-67
2021/06/03 10:17:33;;;;;;;15.98;14.65;;;22.80;99.90;;;;;;5074545;28;20255;-67
2021/06/03 10:20:04;;;;;;;18.05;16.48;;;23.20;99.90;;;;;;5087955;28;20603;-67
2021/06/03 10:22:33;;;;;;;13.00;11.90;;;23.60;99.90;;;;;;5081496;28;20200;-66
2021/06/03 10:25:01;;;;;;;12.27;11.23;;;24.10;99.90;;;;;;5074121;28;20227;-67
2021/06/03 10:28:08;;;;;;;12.20;11.20;;;24.50;99.90;;;;;;5089667;28;20293;-66
2021/06/03 10:31:05;;;;;;;12.00;10.65;;;24.80;99.90;;;;;;5053084;28;20640;-66
2021/06/03 10:33:32;;;;;;;13.15;11.77;;;24.70;99.90;;;;;;5076828;28;20657;-65
2021/06/03 10:36:06;;;;;;;11.80;10.90;;;24.70;99.90;;;;;;5092415;28;20217;-64
2021/06/03 10:38:32;;;;;;;13.25;12.23;;;24.60;99.90;;;;;;5091475;28;20173;-65
2021/06/03 10:41:02;;;;;;;13.27;12.02;;;24.80;99.90;;;;;;5072999;28;20178;-65
2021/06/03 10:43:29;;;;;;;14.00;12.75;;;24.90;99.90;;;;;;5073862;28;20202;-65
2021/06/03 10:45:55;;;;;;;13.70;12.40;;;25.10;99.90;;;;;;5093486;28;20621;-66
2021/06/03 10:48:21;;;;;;;11.65;10.73;;;25.20;99.90;;;;;;5083280;28;20682;-65
2021/06/03 10:50:49;;;;;;;12.48;11.32;;;25.20;99.90;;;;;;5076734;28;20177;-65
2021/06/03 10:53:24;;;;;;;12.20;11.23;;;25.60;99.90;;;;;;5076813;28;20182;-65
2021/06/03 10:56:08;;;;;;;14.15;12.95;;;25.80;99.90;;;;;;5077451;28;20208;-65
2021/06/03 10:58:35;;;;;;;11.95;10.77;;;25.90;99.90;;;;;;5084431;28;20212;-65
2021/06/03 11:01:05;;;;;;;15.07;13.98;;;26.00;99.90;;;;;;5077822;28;20177;-66
2021/06/03 11:03:46;;;;;;;11.75;10.73;;;25.90;99.90;;;;;;5091882;28;20230;-65
2021/06/03 11:06:15;;;;;;;12.90;11.80;;;26.00;99.90;;;;;;5078936;28;20558;-64
2021/06/03 11:08:49;;;;;;;11.27;10.30;;;26.20;99.90;;;;;;5077326;28;20190;-65
2021/06/03 11:11:15;;;;;;;12.77;9.95;;;26.40;99.90;;;;;;5072573;28;20181;-64
2021/06/03 11:13:46;;;;;;;11.77;10.88;;;26.50;99.90;;;;;;5081778;28;20551;-65
2021/06/03 11:16:19;;;;;;;12.10;11.00;;;26.40;99.90;;;;;;5092919;28;20287;-65
2021/06/03 11:18:45;;;;;;;11.30;10.50;;;26.30;99.90;;;;;;5081742;28;20182;-65
2021/06/03 11:21:32;;;;;;;12.40;11.20;;;26.30;99.90;;;;;;5091082;28;20229;-64
2021/06/03 11:23:59;;;;;;;11.63;10.70;;;26.40;99.90;;;;;;5072446;28;20174;-65
2021/06/03 11:26:37;;;;;;;12.57;11.57;;;26.50;99.90;;;;;;5087139;28;20241;-64
2021/06/03 11:29:12;;;;;;;11.77;10.88;;;26.40;99.90;;;;;;5080673;28;20209;-64
2021/06/03 11:31:43;;;;;;;13.82;11.38;;;26.50;99.90;;;;;;5092498;28;20226;-65
2021/06/03 11:34:12;;;;;;;11.88;10.88;;;26.60;99.90;;;;;;5087381;28;20246;-65
2021/06/03 11:36:40;;;;;;;14.13;12.10;;;26.80;99.90;;;;;;5092531;28;20621;-65
2021/06/03 11:39:31;;;;;;;13.77;12.38;;;27.10;99.90;;;;;;5086461;28;20178;-65
2021/06/03 11:42:29;;;;;;;13.93;12.82;;;27.30;99.90;;;;;;5090147;28;20593;-64
2021/06/03 11:45:13;;;;;;;14.25;12.93;;;27.80;99.90;;;;;;5036217;28;20712;-64
2021/06/03 11:47:39;;;;;;;14.18;12.98;;;28.10;99.90;;;;;;5087775;28;20718;-65
2021/06/03 11:50:05;;;;;;;14.50;13.35;;;28.10;99.90;;;;;;5068484;28;20526;-65
2021/06/03 11:52:31;;;;;;;14.20;12.82;;;28.10;99.90;;;;;;5087423;28;20638;-65
2021/06/03 11:55:05;;;;;;;15.18;13.68;;;28.10;99.90;;;;;;5092143;28;20209;-65
2021/06/03 11:57:33;;;;;;;10.88;9.68;;;28.50;99.90;;;;;;5073768;28;20194;-65
2021/06/03 12:00:04;;;;;;;13.18;12.07;;;28.90;99.90;;;;;;5085107;28;20185;-65
2021/06/03 12:02:35;;;;;;;11.10;10.20;;;28.80;99.90;;;;;;5082665;28;20174;-64
2021/06/03 12:05:10;;;;;;;11.95;11.05;;;28.60;99.90;;;;;;5051866;28;20189;-65
2021/06/03 12:07:39;;;;;;;13.32;12.02;;;28.40;99.90;;;;;;5067245;28;20280;-67
2021/06/03 12:10:04;;;;;;;12.77;10.05;;;28.90;99.90;;;;;;5071514;28;20198;-66
2021/06/03 12:12:32;;;;;;;11.48;10.55;;;29.40;99.90;;;;;;5079847;28;20254;-65
2021/06/03 12:14:58;;;;;;;11.75;10.65;;;29.70;99.90;;;;;;5085227;28;20202;-65
2021/06/03 12:17:24;;;;;;;9.75;8.77;;;30.10;99.90;;;;;;5077119;28;20217;-65
2021/06/03 12:19:52;;;;;;;9.63;8.57;;;30.20;99.90;;;;;;5076239;28;20182;-65
2021/06/03 12:22:21;;;;;;;11.05;10.15;;;29.90;99.90;;;;;;5084366;28;20169;-65
2021/06/03 12:24:48;;;;;;;13.35;12.25;;;29.90;99.90;;;;;;5088839;28;20178;-64
2021/06/03 12:27:40;;;;;;;11.18;10.38;;;29.70;99.90;;;;;;5072338;28;20347;-65
2021/06/03 12:30:15;;;;;;;12.35;11.43;;;29.40;99.90;;;;;;5041593;28;20194;-65
2021/06/03 12:32:43;;;;;;;10.63;9.82;;;30.00;99.90;;;;;;5071984;28;20169;-65
2021/06/03 12:35:09;;;;;;;11.52;10.43;;;30.50;99.90;;;;;;5090702;28;20546;-65
2021/06/03 12:37:36;;;;;;;15.30;14.20;;;31.10;99.90;;;;;;5084573;28;20205;-65
2021/06/03 12:40:18;;;;;;;11.07;9.77;;;31.40;99.90;;;;;;5070255;28;20170;-65
2021/06/03 12:42:44;;;;;;;15.25;13.95;;;31.70;99.90;;;;;;5071844;28;20773;-66
2021/06/03 12:45:11;;;;;;;23.35;21.42;;;31.60;99.90;;;;;;5079917;28;20181;-65
2021/06/03 12:47:37;;;;;;;15.02;13.57;;;31.60;99.90;;;;;;5085740;28;20198;-65